Time;durP1;ratioP1;P1;durP2;ratioP2;P2;SDS_P1;SDS_P2;PMS_P1;PMS_P2;Temp;Humidity;BMP_temperature;BMP_pressure;BME280_temperature;BME280_humidity;BME280_pressure;Samples;Min_cycle;Max_cycle;Signal;HPM_P1;HPM_P2
2022/11/29 00:00:58;;;;;;;70.70;63.00;;;;;;;4.32;100.00;101571.28;5031746;28;20475;-43
2022/11/29 00:03:27;;;;;;;71.33;63.90;;;;;;;4.36;100.00;101582.41;5031771;28;20428;-43
2022/11/29 00:05:55;;;;;;;74.50;65.57;;;;;;;4.32;100.00;101571.28;5031259;28;20440;-43
2022/11/29 00:08:23;;;;;;;72.67;63.80;;;;;;;4.33;100.00;101575.56;5031870;28;20428;-46
2022/11/29 00:10:52;;;;;;;67.47;60.90;;;;;;;4.33;100.00;101580.06;5031690;28;20436;-45
2022/11/29 00:13:20;;;;;;;70.43;63.27;;;;;;;4.33;100.00;101577.41;5031450;28;20439;-44
2022/11/29 00:15:47;;;;;;;72.20;64.50;;;;;;;4.35;100.00;101575.47;5050290;28;20545;-45
2022/11/29 00:18:15;;;;;;;72.37;64.77;;;;;;;4.37;100.00;101576.16;5051665;28;20435;-46
2022/11/29 00:20:42;;;;;;;68.93;61.70;;;;;;;4.36;100.00;101588.50;5051423;28;20478;-43
2022/11/29 00:23:10;;;;;;;70.67;62.10;;;;;;;4.39;100.00;101582.94;5051690;28;20431;-42
2022/11/29 00:25:38;;;;;;;77.50;63.53;;;;;;;4.44;100.00;101586.03;5051246;28;20459;-44
2022/11/29 00:28:07;;;;;;;70.13;62.60;;;;;;;4.43;100.00;101583.53;5051786;28;20539;-44
2022/11/29 00:30:34;;;;;;;75.40;64.57;;;;;;;4.43;100.00;101575.59;5051475;28;20488;-43
2022/11/29 00:33:03;;;;;;;74.57;62.70;;;;;;;4.42;100.00;101584.53;5051146;28;20428;-49
2022/11/29 00:35:31;;;;;;;72.63;64.50;;;;;;;4.41;100.00;101583.69;5050739;28;20985;-46
2022/11/29 00:37:59;;;;;;;70.63;63.00;;;;;;;4.38;100.00;101585.75;5051533;28;20776;-44
2022/11/29 00:40:26;;;;;;;71.93;63.70;;;;;;;4.39;100.00;101580.31;5051397;28;20528;-42
2022/11/29 00:42:54;;;;;;;83.10;64.70;;;;;;;4.42;100.00;101573.94;5051369;28;20431;-44
2022/11/29 00:45:23;;;;;;;69.57;61.87;;;;;;;4.37;100.00;101576.16;5050510;28;20464;-45
2022/11/29 00:47:50;;;;;;;72.87;64.73;;;;;;;4.38;100.00;101578.66;5051733;28;20450;-43
2022/11/29 00:50:18;;;;;;;77.83;67.47;;;;;;;4.37;100.00;101577.00;5051537;28;20953;-49
2022/11/29 00:52:46;;;;;;;74.70;66.60;;;;;;;4.36;100.00;101574.50;5053057;28;20970;-49
2022/11/29 00:55:14;;;;;;;77.47;69.23;;;;;;;4.39;100.00;101580.31;5057926;28;20873;-47
2022/11/29 00:57:41;;;;;;;72.23;64.93;;;;;;;4.37;100.00;101582.28;5066631;28;20446;-47
2022/11/29 01:00:10;;;;;;;73.80;66.10;;;;;;;4.37;100.00;101586.72;5074736;28;20438;-46
2022/11/29 01:02:39;;;;;;;74.43;66.93;;;;;;;4.34;100.00;101585.19;5075038;28;20433;-47
2022/11/29 01:05:07;;;;;;;75.17;67.27;;;;;;;4.27;100.00;101573.47;5074138;28;20533;-45
2022/11/29 01:07:35;;;;;;;71.97;64.27;;;;;;;4.27;100.00;101577.94;5074780;28;20870;-46
2022/11/29 01:10:03;;;;;;;77.73;65.70;;;;;;;4.24;100.00;101575.59;5074818;28;20438;-46
2022/11/29 01:12:31;;;;;;;79.33;66.70;;;;;;;4.22;100.00;101578.34;5074831;28;20479;-48
2022/11/29 01:14:58;;;;;;;76.10;65.70;;;;;;;4.27;100.00;101580.59;5074191;28;20500;-47
2022/11/29 01:17:26;;;;;;;78.90;70.30;;;;;;;4.31;100.00;101590.72;5074751;28;20451;-47
2022/11/29 01:19:55;;;;;;;72.73;65.43;;;;;;;4.30;100.00;101577.69;5074773;28;20492;-46
2022/11/29 01:22:23;;;;;;;79.90;67.10;;;;;;;4.31;100.00;101581.97;5074616;28;20489;-45
2022/11/29 01:24:50;;;;;;;72.77;65.30;;;;;;;4.31;100.00;101592.53;5073923;28;20450;-48
2022/11/29 01:27:18;;;;;;;73.60;64.60;;;;;;;4.34;100.00;101593.09;5074440;28;20450;-47
2022/11/29 01:29:45;;;;;;;74.20;66.40;;;;;;;4.36;100.00;101591.16;5074421;28;20435;-45
2022/11/29 01:32:13;;;;;;;71.70;64.57;;;;;;;4.37;100.00;101597.28;5074358;28;20431;-45
2022/11/29 01:34:41;;;;;;;75.00;64.57;;;;;;;4.35;100.00;101593.94;5074138;28;21023;-46
2022/11/29 01:37:10;;;;;;;72.03;64.57;;;;;;;4.37;100.00;101599.91;5074663;28;20446;-45
2022/11/29 01:39:38;;;;;;;72.93;65.33;;;;;;;4.36;100.00;101599.06;5074348;28;20513;-46
2022/11/29 01:42:06;;;;;;;72.77;65.20;;;;;;;4.36;100.00;101606.19;5074129;28;20469;-46
2022/11/29 01:45:00;;;;;;;75.70;63.73;;;;;;;4.32;100.00;101607.41;5073506;28;20465;-43
2022/11/29 01:47:28;;;;;;;72.93;65.00;;;;;;;4.31;100.00;101606.56;5074118;28;20469;-47
2022/11/29 01:49:56;;;;;;;70.17;62.97;;;;;;;4.31;100.00;101603.94;5074161;28;20472;-45
2022/11/29 01:52:28;;;;;;;72.03;64.63;;;;;;;4.33;100.00;101607.25;5074306;28;20487;-45
2022/11/29 01:55:00;;;;;;;75.80;68.13;;;;;;;4.32;100.00;101602.13;5069918;28;20827;-48
2022/11/29 01:57:28;;;;;;;72.10;64.43;;;;;;;4.33;100.00;101609.09;5065792;28;20435;-48
2022/11/29 02:00:01;;;;;;;72.87;65.10;;;;;;;4.27;100.00;101605.16;5074229;28;20437;-46
2022/11/29 02:02:32;;;;;;;71.73;64.33;;;;;;;4.30;100.00;101602.25;5073405;28;21004;-45
2022/11/29 02:05:02;;;;;;;75.50;67.40;;;;;;;4.34;100.00;101608.09;5073186;28;20489;-48
2022/11/29 02:07:31;;;;;;;70.43;63.53;;;;;;;4.33;100.00;101598.53;5074132;28;20457;-47
2022/11/29 02:09:59;;;;;;;73.23;64.10;;;;;;;4.36;100.00;101608.81;5073942;28;20442;-49
2022/11/29 02:12:39;;;;;;;72.60;64.80;;;;;;;4.35;100.00;101601.88;5073863;28;20817;-45
2022/11/29 02:15:22;;;;;;;71.10;63.80;;;;;;;4.32;100.00;101602.13;5073062;28;20584;-46
2022/11/29 02:18:04;;;;;;;75.80;63.10;;;;;;;4.36;100.00;101603.53;5073850;28;20774;-47
2022/11/29 02:21:03;;;;;;;71.23;63.80;;;;;;;4.34;100.00;101605.47;5073829;28;20959;-46
2022/11/29 02:24:08;;;;;;;69.97;62.77;;;;;;;4.37;100.00;101603.41;5072615;28;20431;-46
2022/11/29 02:27:06;;;;;;;70.70;62.73;;;;;;;4.34;100.00;101610.75;5073607;28;20453;-46
2022/11/29 02:30:01;;;;;;;70.83;63.13;;;;;;;4.37;100.00;101608.69;5072521;28;20438;-46
2022/11/29 02:33:06;;;;;;;72.80;65.13;;;;;;;4.36;100.00;101614.91;5072979;28;20442;-47
2022/11/29 02:35:50;;;;;;;69.80;62.50;;;;;;;4.35;100.00;101613.25;5072763;28;20513;-46
2022/11/29 02:38:32;;;;;;;70.30;63.17;;;;;;;4.36;100.00;101616.75;5073037;28;20434;-46
2022/11/29 02:41:15;;;;;;;72.37;64.13;;;;;;;4.37;100.00;101613.97;5073154;28;20434;-46
2022/11/29 02:44:07;;;;;;;71.43;63.73;;;;;;;4.41;100.00;101618.00;5072454;28;20434;-47
2022/11/29 02:47:00;;;;;;;74.30;66.33;;;;;;;4.40;100.00;101620.75;5072712;28;20469;-47
2022/11/29 02:49:44;;;;;;;70.47;63.57;;;;;;;4.38;100.00;101620.06;5073134;28;20439;-44
2022/11/29 02:52:19;;;;;;;75.17;63.43;;;;;;;4.38;100.00;101622.72;5072910;28;20426;-46
2022/11/29 02:54:52;;;;;;;71.93;64.23;;;;;;;4.40;100.00;101623.41;5068630;28;20462;-45
2022/11/29 02:57:25;;;;;;;68.93;61.57;;;;;;;4.40;100.00;101620.75;5053648;28;20439;-47
2022/11/29 03:00:01;;;;;;;74.97;66.57;;;;;;;4.43;100.00;101620.50;5052629;28;20943;-46
2022/11/29 03:02:36;;;;;;;75.23;67.23;;;;;;;4.43;100.00;101626.63;5052623;28;20470;-45
2022/11/29 03:05:17;;;;;;;70.37;63.43;;;;;;;4.45;100.00;101626.47;5051780;28;20466;-45
2022/11/29 03:07:51;;;;;;;70.33;63.13;;;;;;;4.48;100.00;101634.13;5052728;28;20451;-46
2022/11/29 03:10:30;;;;;;;72.37;64.80;;;;;;;4.47;100.00;101635.13;5052600;28;20438;-46
2022/11/29 03:12:59;;;;;;;70.17;63.07;;;;;;;4.48;100.00;101634.13;5052435;28;20822;-46
2022/11/29 03:15:31;;;;;;;84.43;64.70;;;;;;;4.48;100.00;101632.31;5050864;28;20477;-46
2022/11/29 03:18:09;;;;;;;70.83;63.73;;;;;;;4.42;100.00;101634.69;5052641;28;20435;-47
2022/11/29 03:20:55;;;;;;;75.83;67.73;;;;;;;4.44;100.00;101638.03;5052472;28;20423;-48
2022/11/29 03:23:28;;;;;;;72.13;64.87;;;;;;;4.46;100.00;101642.19;5051910;28;20467;-46
2022/11/29 03:26:03;;;;;;;71.57;64.53;;;;;;;4.48;100.00;101639.41;5051651;28;20477;-46
2022/11/29 03:28:35;;;;;;;71.30;64.13;;;;;;;4.46;100.00;101644.00;5052437;28;20485;-46
2022/11/29 03:31:10;;;;;;;73.07;64.63;;;;;;;4.49;100.00;101649.00;5052248;28;20431;-46
2022/11/29 03:33:45;;;;;;;72.03;63.10;;;;;;;4.46;100.00;101650.13;5051590;28;20455;-46
2022/11/29 03:36:21;;;;;;;71.50;64.10;;;;;;;4.46;100.00;101647.47;5051987;28;20451;-44
2022/11/29 03:38:54;;;;;;;69.10;61.60;;;;;;;4.47;100.00;101648.31;5052248;28;20431;-46
2022/11/29 03:41:27;;;;;;;89.50;67.90;;;;;;;4.47;100.00;101651.81;5052103;28;20431;-45
2022/11/29 03:44:00;;;;;;;73.03;65.20;;;;;;;4.46;100.00;101654.56;5051285;28;20462;-45
2022/11/29 03:46:34;;;;;;;74.20;66.53;;;;;;;4.44;100.00;101656.50;5051824;28;20479;-46
2022/11/29 03:49:07;;;;;;;72.40;64.77;;;;;;;4.45;100.00;101652.88;5051779;28;20438;-47
2022/11/29 03:51:48;;;;;;;73.13;65.70;;;;;;;4.44;100.00;101661.78;5052298;28;20811;-44
2022/11/29 03:54:23;;;;;;;68.13;61.00;;;;;;;4.40;100.00;101652.47;5051246;28;20471;-46
2022/11/29 03:56:51;;;;;;;71.03;63.40;;;;;;;4.42;100.00;101655.81;5057112;28;20504;-45
2022/11/29 03:59:29;;;;;;;74.47;66.63;;;;;;;4.44;100.00;101656.50;5071615;28;20782;-50
2022/11/29 04:02:30;;;;;;;71.30;63.70;;;;;;;4.38;100.00;101659.69;5071639;28;20473;-46
2022/11/29 04:05:28;;;;;;;70.57;63.50;;;;;;;4.38;100.00;101670.25;5071063;28;20523;-49
2022/11/29 04:08:10;;;;;;;69.53;62.03;;;;;;;4.36;100.00;101664.28;5071945;28;20430;-45
2022/11/29 04:10:57;;;;;;;71.10;63.47;;;;;;;4.36;100.00;101670.38;5071825;28;20461;-50
2022/11/29 04:13:45;;;;;;;75.97;66.40;;;;;;;4.36;100.00;101667.72;5067449;28;20921;-46
2022/11/29 04:16:38;;;;;;;71.57;63.93;;;;;;;4.38;100.00;101668.44;5062802;28;21010;-49
2022/11/29 04:19:33;;;;;;;68.90;61.37;;;;;;;4.39;100.00;101666.66;5071806;28;20439;-46
2022/11/29 04:22:28;;;;;;;69.70;62.53;;;;;;;4.36;100.00;101664.28;5071482;28;20430;-50
2022/11/29 04:25:13;;;;;;;72.13;64.73;;;;;;;4.36;100.00;101678.28;5070831;28;20497;-46
2022/11/29 04:28:05;;;;;;;76.53;63.07;;;;;;;4.34;100.00;101680.25;5074861;28;20446;-47
2022/11/29 04:30:46;;;;;;;69.97;63.03;;;;;;;4.31;100.00;101684.94;5075457;28;20435;-48
2022/11/29 04:33:41;;;;;;;78.30;67.73;;;;;;;4.31;100.00;101683.16;5075408;28;20866;-46
2022/11/29 04:36:34;;;;;;;73.03;65.43;;;;;;;4.32;100.00;101686.63;5075253;28;20442;-48
2022/11/29 04:39:16;;;;;;;73.13;65.73;;;;;;;4.31;100.00;101691.06;5075289;28;20437;-47
2022/11/29 04:42:08;;;;;;;73.03;65.77;;;;;;;4.32;100.00;101692.75;5075307;28;20917;-46
2022/11/29 04:44:49;;;;;;;68.27;61.13;;;;;;;4.33;100.00;101699.69;5074569;28;20899;-47
2022/11/29 04:47:39;;;;;;;72.37;64.07;;;;;;;4.36;100.00;101699.41;5074586;28;21041;-46
2022/11/29 04:50:18;;;;;;;71.63;63.50;;;;;;;4.32;100.00;101697.19;5075138;28;20438;-45
2022/11/29 04:53:06;;;;;;;78.00;63.30;;;;;;;4.36;100.00;101701.25;5075186;28;20434;-46
2022/11/29 04:55:44;;;;;;;72.50;64.23;;;;;;;4.40;100.00;101707.91;5070718;28;20992;-48
2022/11/29 04:58:20;;;;;;;72.63;64.87;;;;;;;4.40;100.00;101706.13;5066784;28;20422;-46
2022/11/29 05:00:59;;;;;;;78.73;70.20;;;;;;;4.42;100.00;101709.44;5075158;28;20437;-46
2022/11/29 05:03:37;;;;;;;74.30;66.07;;;;;;;4.43;100.00;101711.13;5074572;28;20504;-45
2022/11/29 05:06:17;;;;;;;77.77;69.43;;;;;;;4.44;100.00;101711.97;5074530;28;20452;-46
2022/11/29 05:08:55;;;;;;;75.20;66.90;;;;;;;4.43;100.00;101712.94;5075005;28;20434;-48
2022/11/29 05:11:35;;;;;;;76.17;67.60;;;;;;;4.40;100.00;101721.97;5075012;28;20426;-45
2022/11/29 05:14:15;;;;;;;72.73;65.10;;;;;;;4.41;100.00;101731.56;5074644;28;20469;-45
2022/11/29 05:16:55;;;;;;;74.67;66.67;;;;;;;4.44;100.00;101725.19;5074988;28;20445;-46
2022/11/29 05:19:42;;;;;;;76.83;68.57;;;;;;;4.41;100.00;101728.09;5074825;28;20450;-47
2022/11/29 05:22:22;;;;;;;83.47;68.13;;;;;;;4.42;100.00;101729.78;5074964;28;20427;-44
2022/11/29 05:25:01;;;;;;;72.40;64.70;;;;;;;4.43;100.00;101732.25;5073894;28;20996;-45
2022/11/29 05:27:41;;;;;;;74.87;66.67;;;;;;;4.44;100.00;101733.09;5074541;28;20455;-45
2022/11/29 05:30:13;;;;;;;75.13;65.03;;;;;;;4.39;100.00;101732.66;5074522;28;20434;-45
2022/11/29 05:32:54;;;;;;;79.17;66.63;;;;;;;4.39;100.00;101728.19;5074552;28;20423;-47
2022/11/29 05:35:52;;;;;;;76.87;68.77;;;;;;;4.42;100.00;101735.06;5073754;28;20743;-45
2022/11/29 05:38:53;;;;;;;74.17;66.07;;;;;;;4.43;100.00;101736.69;5073657;28;20426;-49
2022/11/29 05:41:37;;;;;;;75.87;65.17;;;;;;;4.44;100.00;101736.59;5074347;28;20433;-47
2022/11/29 05:44:11;;;;;;;84.40;69.73;;;;;;;4.41;100.00;101728.94;5073926;28;20512;-47
2022/11/29 05:46:48;;;;;;;77.53;67.60;;;;;;;4.41;100.00;101741.28;5074220;28;20466;-44
2022/11/29 05:49:29;;;;;;;81.47;71.50;;;;;;;4.38;100.00;101734.47;5074290;28;20434;-45
2022/11/29 05:52:13;;;;;;;78.93;69.87;;;;;;;4.39;100.00;101754.63;5074046;28;20422;-45
2022/11/29 05:54:46;;;;;;;75.93;66.27;;;;;;;4.40;100.00;101750.16;5070922;28;20831;-47
2022/11/29 05:57:23;;;;;;;76.90;67.70;;;;;;;4.41;100.00;101752.69;5062155;28;20447;-45
2022/11/29 05:59:51;;;;;;;78.97;68.80;;;;;;;4.42;100.00;101758.81;5053913;28;20458;-45
2022/11/29 06:02:34;;;;;;;84.53;70.53;;;;;;;4.43;100.00;101757.81;5053973;28;20445;-46
2022/11/29 06:05:12;;;;;;;77.60;69.13;;;;;;;4.46;100.00;101766.34;5053352;28;20459;-47
2022/11/29 06:07:47;;;;;;;77.43;69.40;;;;;;;4.41;100.00;101765.91;5053614;28;20458;-46
2022/11/29 06:10:17;;;;;;;78.73;70.33;;;;;;;4.41;100.00;101770.34;5053719;28;20435;-47
2022/11/29 06:12:54;;;;;;;81.93;71.07;;;;;;;4.41;100.00;101770.34;5053592;28;20933;-44
2022/11/29 06:15:48;;;;;;;87.50;70.80;;;;;;;4.43;100.00;101773.69;5053182;28;20525;-45
2022/11/29 06:18:35;;;;;;;82.00;71.40;;;;;;;4.43;100.00;101784.25;5053854;28;21001;-47
2022/11/29 06:21:17;;;;;;;75.83;67.80;;;;;;;4.41;100.00;101783.53;5053485;28;20804;-43
2022/11/29 06:24:06;;;;;;;86.27;70.63;;;;;;;4.39;100.00;101788.94;5052931;28;21032;-46
2022/11/29 06:26:53;;;;;;;82.33;71.83;;;;;;;4.38;100.00;101789.94;5053666;28;20451;-46
2022/11/29 06:29:29;;;;;;;86.53;72.73;;;;;;;4.33;100.00;101793.94;5053554;28;20485;-47
2022/11/29 06:32:07;;;;;;;83.83;72.10;;;;;;;4.35;100.00;101795.47;5053604;28;20431;-47
2022/11/29 06:34:45;;;;;;;79.07;70.63;;;;;;;4.32;100.00;101794.91;5052976;28;20825;-47
2022/11/29 06:37:21;;;;;;;77.87;69.67;;;;;;;4.35;100.00;101797.28;5053498;28;20850;-47
2022/11/29 06:39:49;;;;;;;87.77;72.07;;;;;;;4.33;100.00;101800.03;5053164;28;21012;-45
2022/11/29 06:42:17;;;;;;;85.40;73.83;;;;;;;4.32;100.00;101793.09;5053362;28;20879;-46
2022/11/29 06:44:45;;;;;;;79.80;71.17;;;;;;;4.28;100.00;101796.09;5052509;28;20467;-47
2022/11/29 06:47:20;;;;;;;80.93;69.53;;;;;;;4.33;100.00;101807.94;5053393;28;20463;-43
2022/11/29 06:49:53;;;;;;;78.03;70.13;;;;;;;4.28;100.00;101802.22;5052714;28;20782;-43
2022/11/29 06:52:38;;;;;;;78.60;70.30;;;;;;;4.24;100.00;101803.44;5052472;28;20893;-46
2022/11/29 06:55:18;;;;;;;83.83;75.33;;;;;;;4.27;100.00;101807.66;5054318;28;20463;-43
2022/11/29 06:58:01;;;;;;;93.27;72.90;;;;;;;4.27;100.00;101810.31;5064529;28;20442;-44
2022/11/29 07:00:41;;;;;;;81.43;71.33;;;;;;;4.27;100.00;101821.66;5072238;28;20442;-43
2022/11/29 07:03:28;;;;;;;79.57;70.50;;;;;;;4.33;100.00;101822.97;5072187;28;20422;-44
2022/11/29 07:05:57;;;;;;;81.63;72.60;;;;;;;4.32;100.00;101824.78;5072307;28;20438;-43
2022/11/29 07:08:26;;;;;;;79.10;69.20;;;;;;;4.33;100.00;101830.91;5072328;28;20438;-44
2022/11/29 07:10:54;;;;;;;80.23;70.40;;;;;;;4.35;100.00;101827.16;5072122;28;20441;-45
2022/11/29 07:13:23;;;;;;;80.87;70.17;;;;;;;4.33;100.00;101823.78;5072150;28;20449;-45
2022/11/29 07:16:03;;;;;;;83.03;73.97;;;;;;;4.37;100.00;101824.38;5071526;28;20876;-43
2022/11/29 07:18:39;;;;;;;77.60;69.23;;;;;;;4.36;100.00;101828.81;5072275;28;20426;-44
2022/11/29 07:21:16;;;;;;;81.20;72.47;;;;;;;4.31;100.00;101836.28;5072298;28;20476;-43
2022/11/29 07:23:51;;;;;;;80.83;72.47;;;;;;;4.32;100.00;101835.34;5071420;28;20466;-45
2022/11/29 07:26:26;;;;;;;79.03;70.70;;;;;;;4.37;100.00;101846.34;5072042;28;20515;-43
2022/11/29 07:29:07;;;;;;;79.50;71.07;;;;;;;4.40;100.00;101847.88;5071878;28;20964;-43
2022/11/29 07:31:45;;;;;;;83.47;72.60;;;;;;;4.41;100.00;101845.13;5071855;28;20457;-43
2022/11/29 07:34:21;;;;;;;81.53;73.40;;;;;;;4.44;100.00;101849.31;5071176;28;20462;-45
2022/11/29 07:36:57;;;;;;;84.40;75.20;;;;;;;4.46;100.00;101855.28;5071686;28;20446;-46
2022/11/29 07:39:36;;;;;;;78.77;70.57;;;;;;;4.44;100.00;101860.72;5071794;28;20438;-44
2022/11/29 07:42:13;;;;;;;87.53;76.90;;;;;;;4.46;100.00;101853.50;5071946;28;20426;-42
2022/11/29 07:44:50;;;;;;;85.23;73.87;;;;;;;4.45;100.00;101857.09;5071117;28;20474;-46
2022/11/29 07:47:17;;;;;;;79.33;71.43;;;;;;;4.50;100.00;101858.50;5071525;28;20582;-46
2022/11/29 07:49:45;;;;;;;84.57;75.40;;;;;;;4.51;100.00;101865.47;5071660;28;20438;-44
2022/11/29 07:52:14;;;;;;;80.60;71.83;;;;;;;4.47;100.00;101863.09;5071625;28;20431;-44
2022/11/29 07:54:43;;;;;;;81.30;72.90;;;;;;;4.54;100.00;101867.88;5068028;28;20462;-43
2022/11/29 07:57:11;;;;;;;77.23;68.83;;;;;;;4.47;100.00;101870.19;5062968;28;20448;-43
2022/11/29 07:59:38;;;;;;;80.70;72.27;;;;;;;4.52;100.00;101869.78;5071729;28;20445;-43
2022/11/29 08:02:06;;;;;;;80.27;71.40;;;;;;;4.50;100.00;101869.91;5071354;28;20438;-43
2022/11/29 08:04:41;;;;;;;83.10;74.47;;;;;;;4.54;100.00;101876.59;5070754;28;20474;-44
2022/11/29 08:07:10;;;;;;;80.87;71.90;;;;;;;4.55;100.00;101872.16;5071566;28;20486;-43
2022/11/29 08:09:37;;;;;;;84.87;76.17;;;;;;;4.59;100.00;101877.06;5071489;28;20434;-44
2022/11/29 08:12:07;;;;;;;77.53;69.93;;;;;;;4.62;100.00;101878.59;5071440;28;20933;-45
2022/11/29 08:14:34;;;;;;;81.77;72.93;;;;;;;4.63;100.00;101875.00;5071027;28;20868;-47
2022/11/29 08:17:02;;;;;;;85.90;73.00;;;;;;;4.65;100.00;101873.91;5071596;28;20458;-43
2022/11/29 08:19:29;;;;;;;82.03;72.97;;;;;;;4.66;100.00;101875.56;5071621;28;20875;-46
2022/11/29 08:21:57;;;;;;;81.33;73.17;;;;;;;4.68;100.00;101878.94;5071497;28;20448;-44
2022/11/29 08:24:25;;;;;;;78.93;70.73;;;;;;;4.64;100.00;101877.50;5070850;28;20872;-42
2022/11/29 08:26:53;;;;;;;80.53;71.80;;;;;;;4.67;100.00;101877.25;5071529;28;20454;-45
2022/11/29 08:29:22;;;;;;;80.03;72.03;;;;;;;4.68;100.00;101878.94;5071527;28;20807;-44
2022/11/29 08:31:52;;;;;;;81.57;72.77;;;;;;;4.71;100.00;101889.22;5071419;28;20496;-43
2022/11/29 08:34:20;;;;;;;84.70;75.97;;;;;;;4.71;100.00;101893.69;5070585;28;20500;-45
2022/11/29 08:36:47;;;;;;;83.33;72.93;;;;;;;4.72;100.00;101885.59;5071276;28;20454;-43
2022/11/29 08:39:15;;;;;;;79.63;71.63;;;;;;;4.77;100.00;101886.06;5071492;28;20921;-45
2022/11/29 08:41:43;;;;;;;81.63;73.00;;;;;;;4.82;100.00;101890.94;5071273;28;20480;-43
2022/11/29 08:44:10;;;;;;;80.10;70.60;;;;;;;4.84;100.00;101895.13;5070487;28;20997;-44
2022/11/29 08:49:25;;;;;;;76.37;68.37;;;;;;;4.81;100.00;101891.91;5071390;28;20488;-44
2022/11/29 08:53:40;;;;;;;76.50;68.40;;;;;;;4.74;100.00;101898.69;5071878;28;20484;-42
2022/11/29 08:54:39;;;;;;;79.90;68.00;;;;;;;4.74;100.00;101896.91;5067980;28;20455;-42
2022/11/29 08:57:07;;;;;;;84.87;75.83;;;;;;;4.72;100.00;101898.81;5061671;28;20842;-44
2022/11/29 08:59:54;;;;;;;79.30;71.10;;;;;;;4.75;100.00;101898.56;5071126;28;20438;-44
2022/11/29 09:02:23;;;;;;;76.90;69.27;;;;;;;4.76;100.00;101900.25;5070960;28;20437;-45
2022/11/29 09:04:51;;;;;;;79.27;70.70;;;;;;;4.80;100.00;101906.94;5070321;28;20999;-46
2022/11/29 09:07:19;;;;;;;84.10;71.30;;;;;;;4.82;100.00;101899.72;5070940;28;20814;-43
2022/11/29 09:09:46;;;;;;;80.10;71.60;;;;;;;4.81;100.00;101903.31;5070906;28;20439;-44
2022/11/29 09:12:14;;;;;;;81.57;73.17;;;;;;;4.82;100.00;101904.16;5071204;28;20430;-44
2022/11/29 09:14:41;;;;;;;76.13;68.17;;;;;;;4.83;100.00;101913.78;5073583;28;20512;-45
2022/11/29 09:17:10;;;;;;;84.10;75.50;;;;;;;4.88;100.00;101903.63;5074477;28;20493;-43
2022/11/29 09:19:38;;;;;;;75.83;67.97;;;;;;;4.96;100.00;101912.56;5074650;28;20517;-45
2022/11/29 09:22:06;;;;;;;79.77;71.60;;;;;;;5.02;100.00;101917.34;5074451;28;20433;-45
2022/11/29 09:24:34;;;;;;;80.03;71.77;;;;;;;5.09;100.00;101919.47;5073864;28;20474;-44
2022/11/29 09:27:01;;;;;;;75.60;67.90;;;;;;;5.15;100.00;101927.69;5074461;28;20530;-46
2022/11/29 09:29:29;;;;;;;80.17;72.40;;;;;;;5.18;100.00;101927.44;5074452;28;20434;-43
2022/11/29 09:31:57;;;;;;;78.90;71.20;;;;;;;5.22;100.00;101928.00;5074420;28;20801;-43
2022/11/29 09:34:24;;;;;;;82.07;73.63;;;;;;;5.15;100.00;101934.78;5073401;28;20752;-44
2022/11/29 09:36:53;;;;;;;84.23;75.33;;;;;;;5.21;100.00;101929.81;5073814;28;20466;-44
2022/11/29 09:39:21;;;;;;;81.13;73.30;;;;;;;5.23;100.00;101937.59;5074069;28;20438;-44
2022/11/29 09:42:05;;;;;;;78.90;71.00;;;;;;;5.29;100.00;101934.44;5074150;28;20434;-43
2022/11/29 09:44:43;;;;;;;78.07;70.13;;;;;;;5.21;100.00;101936.91;5073575;28;20519;-44
2022/11/29 09:47:25;;;;;;;80.20;71.70;;;;;;;5.32;100.00;101947.38;5073794;28;20461;-46
2022/11/29 09:50:00;;;;;;;79.33;70.97;;;;;;;5.35;100.00;101939.19;5074205;28;20433;-46
2022/11/29 09:52:41;;;;;;;80.83;73.07;;;;;;;5.31;100.00;101943.94;5074104;28;20426;-43
2022/11/29 09:55:29;;;;;;;79.37;71.13;;;;;;;5.32;100.00;101945.56;5069817;28;20462;-43
2022/11/29 09:58:02;;;;;;;79.03;71.40;;;;;;;5.35;100.00;101952.41;5065440;28;20438;-43
2022/11/29 10:00:32;;;;;;;79.70;71.57;;;;;;;5.37;100.00;101953.13;5073941;28;20484;-42
2022/11/29 10:03:09;;;;;;;77.67;70.00;;;;;;;5.38;100.00;101952.13;5073648;28;20438;-42
2022/11/29 10:05:41;;;;;;;80.67;72.43;;;;;;;5.42;100.00;101953.56;5073201;28;20472;-42
2022/11/29 10:08:19;;;;;;;74.60;67.60;;;;;;;5.35;100.00;101952.41;5073616;28;20457;-42
2022/11/29 10:10:48;;;;;;;76.77;69.40;;;;;;;5.32;100.00;101953.50;5073683;28;20949;-44
2022/11/29 10:13:22;;;;;;;77.23;69.33;;;;;;;5.41;100.00;101952.72;5073387;28;20427;-43
2022/11/29 10:15:53;;;;;;;78.37;70.27;;;;;;;5.40;100.00;101956.34;5072850;28;20531;-42
2022/11/29 10:18:25;;;;;;;81.77;73.13;;;;;;;5.43;100.00;101952.59;5073321;28;20434;-43
2022/11/29 10:20:57;;;;;;;75.87;67.90;;;;;;;5.55;100.00;101954.19;5073686;28;20491;-47
2022/11/29 10:23:31;;;;;;;75.63;68.17;;;;;;;5.61;100.00;101961.56;5073049;28;20433;-43
2022/11/29 10:26:00;;;;;;;75.27;67.90;;;;;;;5.57;100.00;101955.72;5072978;28;20470;-44
2022/11/29 10:28:30;;;;;;;76.73;68.83;;;;;;;5.62;100.00;101960.59;5073271;28;20430;-43
2022/11/29 10:31:03;;;;;;;82.80;71.30;;;;;;;5.56;100.00;101964.59;5073319;28;20437;-44
2022/11/29 10:33:35;;;;;;;77.40;68.90;;;;;;;5.63;100.00;101956.97;5072707;28;20473;-44
2022/11/29 10:36:15;;;;;;;83.10;74.30;;;;;;;5.57;100.00;101962.81;5073150;28;20840;-43
2022/11/29 10:38:45;;;;;;;79.47;71.27;;;;;;;5.64;100.00;101963.94;5073142;28;20426;-46
2022/11/29 10:41:18;;;;;;;77.43;69.20;;;;;;;5.62;100.00;101960.59;5073071;28;20914;-46
2022/11/29 10:43:46;;;;;;;80.07;71.47;;;;;;;5.57;100.00;101952.22;5072548;28;20415;-44
2022/11/29 10:46:21;;;;;;;79.27;71.27;;;;;;;5.51;100.00;101958.06;5072746;28;20547;-45
2022/11/29 10:48:49;;;;;;;75.37;67.73;;;;;;;5.50;100.00;101961.66;5073271;28;20433;-43
2022/11/29 10:51:17;;;;;;;84.60;76.33;;;;;;;5.55;100.00;101964.75;5072821;28;20426;-44
2022/11/29 10:53:46;;;;;;;81.83;72.90;;;;;;;5.53;100.00;101961.38;5072127;28;20976;-45
2022/11/29 10:56:22;;;;;;;80.50;72.50;;;;;;;5.47;100.00;101957.47;5065443;28;20477;-44
2022/11/29 10:58:56;;;;;;;78.90;70.97;;;;;;;5.38;100.00;101963.56;5069589;28;20434;-43
2022/11/29 11:01:27;;;;;;;76.50;69.00;;;;;;;5.42;100.00;101958.84;5072663;28;20915;-47
2022/11/29 11:03:57;;;;;;;81.30;72.90;;;;;;;5.41;100.00;101958.00;5071988;28;20462;-43
2022/11/29 11:06:27;;;;;;;78.63;70.47;;;;;;;5.45;100.00;101953.28;5072275;28;20819;-43
2022/11/29 11:09:11;;;;;;;84.67;74.70;;;;;;;5.52;100.00;101952.63;5072932;28;20430;-43
2022/11/29 11:11:39;;;;;;;81.53;73.07;;;;;;;5.55;100.00;101962.91;5072608;28;20801;-44
2022/11/29 11:14:27;;;;;;;79.97;71.93;;;;;;;5.56;100.00;101961.97;5071731;28;20462;-44
2022/11/29 11:16:55;;;;;;;85.93;74.27;;;;;;;5.55;100.00;101956.81;5072111;28;20447;-45
2022/11/29 11:19:30;;;;;;;85.80;76.47;;;;;;;5.55;100.00;101962.13;5072331;28;20537;-46
2022/11/29 11:22:00;;;;;;;84.83;75.90;;;;;;;5.56;100.00;101956.66;5072380;28;20565;-45
2022/11/29 11:24:31;;;;;;;81.77;72.30;;;;;;;5.55;100.00;101954.19;5071735;28;20458;-47
2022/11/29 11:26:59;;;;;;;81.83;73.47;;;;;;;5.54;100.00;101949.84;5072011;28;20508;-46
2022/11/29 11:29:35;;;;;;;84.43;75.83;;;;;;;5.55;100.00;101948.88;5071948;28;20434;-44
2022/11/29 11:32:04;;;;;;;80.47;72.27;;;;;;;5.57;100.00;101955.72;5072119;28;20445;-43
2022/11/29 11:34:34;;;;;;;83.73;75.20;;;;;;;5.59;100.00;101956.41;5071217;28;20451;-43
2022/11/29 11:37:24;;;;;;;86.87;76.07;;;;;;;5.67;100.00;101952.25;5071249;28;20450;-43
2022/11/29 11:39:55;;;;;;;81.47;72.67;;;;;;;5.70;100.00;101958.13;5071967;28;20444;-43
2022/11/29 11:42:37;;;;;;;85.70;76.67;;;;;;;5.71;100.00;101958.94;5072207;28;20415;-45
2022/11/29 11:45:23;;;;;;;76.47;69.10;;;;;;;5.77;100.00;101963.69;5071363;28;20489;-44
2022/11/29 11:47:53;;;;;;;76.50;68.63;;;;;;;5.78;100.00;101958.25;5071847;28;20936;-44